createdAt,value
2019-03-30T00:02:09.549Z,100782.82
2019-03-30T00:04:43.642Z,100779.59
2019-03-30T00:07:17.591Z,100778.20
2019-03-30T00:09:51.606Z,100772.55
2019-03-30T00:12:25.072Z,100776.97
2019-03-30T00:14:59.182Z,100774.72
2019-03-30T00:17:33.191Z,100770.95
2019-03-30T00:20:07.625Z,100763.79
2019-03-30T00:22:40.905Z,100765.39
2019-03-30T00:25:15.848Z,100758.45
2019-03-30T00:27:49.528Z,100761.97
2019-03-30T00:30:22.937Z,100756.72
2019-03-30T00:32:56.676Z,100758.84
2019-03-30T00:35:30.029Z,100759.42
2019-03-30T00:38:03.543Z,100754.34
2019-03-30T00:40:37.868Z,100760.33
2019-03-30T00:43:12.340Z,100754.17
2019-03-30T00:45:45.799Z,100752.00
2019-03-30T00:48:20.126Z,100761.70
2019-03-30T00:50:53.878Z,100755.14
2019-03-30T00:53:26.757Z,100756.36
2019-03-30T00:56:00.397Z,100750.81
2019-03-30T00:58:34.595Z,100758.61
2019-03-30T01:01:08.735Z,100751.45
2019-03-30T01:03:43.074Z,100748.95
2019-03-30T01:06:17.505Z,100751.92
2019-03-30T01:08:51.825Z,100754.77
2019-03-30T01:11:25.346Z,100746.25
2019-03-30T01:13:58.792Z,100746.11
2019-03-30T01:16:32.721Z,100751.27
2019-03-30T01:19:06.350Z,100752.01
2019-03-30T01:21:40.195Z,100751.41
2019-03-30T01:24:14.207Z,100748.30
2019-03-30T01:26:48.224Z,100743.62
2019-03-30T01:29:21.916Z,100750.92
2019-03-30T01:31:55.856Z,100739.37
2019-03-30T01:34:30.621Z,100729.80
2019-03-30T01:37:04.543Z,100729.75
2019-03-30T01:39:38.199Z,100729.94
2019-03-30T01:42:12.313Z,100727.45
2019-03-30T01:44:46.372Z,100726.48
2019-03-30T01:47:20.194Z,100723.70
2019-03-30T01:49:53.292Z,100718.03
2019-03-30T01:52:27.083Z,100719.94
2019-03-30T01:55:00.507Z,100713.75
2019-03-30T01:57:34.418Z,100717.23
2019-03-30T02:00:10.727Z,100712.69
2019-03-30T02:02:45.336Z,100711.59
2019-03-30T02:05:19.433Z,100706.25
2019-03-30T02:07:53.022Z,100705.09
2019-03-30T02:10:43.724Z,100706.16
2019-03-30T02:13:17.661Z,100698.53
2019-03-30T02:15:50.735Z,100698.80
2019-03-30T02:18:24.633Z,100703.70
2019-03-30T02:20:58.461Z,100702.06
2019-03-30T02:23:32.455Z,100702.84
2019-03-30T02:26:06.731Z,100698.37
2019-03-30T02:28:40.600Z,100691.79
2019-03-30T02:31:14.529Z,100689.92
2019-03-30T02:33:48.398Z,100694.73
2019-03-30T02:36:21.662Z,100689.33
2019-03-30T02:38:54.847Z,100686.39
2019-03-30T02:41:28.379Z,100682.55
2019-03-30T02:44:02.051Z,100678.42
2019-03-30T02:46:36.004Z,100682.34
2019-03-30T02:49:10.006Z,100676.86
2019-03-30T02:51:43.511Z,100680.77
2019-03-30T02:54:16.606Z,100676.38
2019-03-30T02:56:50.603Z,100675.91
2019-03-30T02:59:24.610Z,100669.40
2019-03-30T03:01:58.503Z,100670.03
2019-03-30T03:04:32.050Z,100665.01
2019-03-30T03:07:06.276Z,100665.27
2019-03-30T03:09:40.782Z,100658.22
2019-03-30T03:12:13.847Z,100659.18
2019-03-30T03:14:47.719Z,100655.20
2019-03-30T13:22:02.809Z,100217.88
2019-03-30T13:24:36.646Z,100216.03
2019-03-30T13:27:12.968Z,100220.26
2019-03-30T13:29:48.422Z,100217.38
2019-03-30T13:32:22.036Z,100223.92
2019-03-30T13:34:56.007Z,100223.92
2019-03-30T13:37:29.982Z,100215.66
2019-03-30T13:40:04.142Z,100215.66
2019-03-30T13:42:38.808Z,100215.52
2019-03-30T13:45:19.846Z,100210.48
2019-03-30T13:47:54.084Z,100220.02
2019-03-30T13:50:30.830Z,100212.16
2019-03-30T13:53:05.724Z,100212.16
2019-03-30T13:55:40.196Z,100210.24
2019-03-30T13:58:15.493Z,100205.03
2019-03-30T14:00:49.629Z,100208.94
2019-03-30T14:03:23.744Z,100208.94
2019-03-30T14:05:56.739Z,100213.81
2019-03-30T14:08:34.549Z,100208.36
2019-03-30T14:11:08.113Z,100206.95
2019-03-30T14:13:43.915Z,100205.42
2019-03-30T14:16:18.854Z,100211.91
2019-03-30T14:18:52.022Z,100210.29
2019-03-30T14:21:26.059Z,100218.34
2019-03-30T14:24:00.435Z,100217.45
2019-03-30T14:26:35.878Z,100219.39
2019-03-30T14:29:10.305Z,100220.88
2019-03-30T14:31:43.997Z,100220.20
2019-03-30T14:34:18.300Z,100225.25
2019-03-30T14:36:54.437Z,100226.72
2019-03-30T14:39:28.820Z,100210.66
2019-03-30T14:42:02.458Z,100213.57
2019-03-30T14:44:36.075Z,100211.98
2019-03-30T14:47:10.155Z,100205.99
2019-03-30T14:49:43.921Z,100213.50
2019-03-30T14:52:17.529Z,100213.17
2019-03-30T14:54:53.102Z,100196.25
2019-03-30T14:57:26.320Z,100208.05
2019-03-30T15:00:00.100Z,100201.59
2019-03-30T15:02:34.883Z,100204.41
2019-03-30T15:05:08.404Z,100203.16
2019-03-30T15:07:42.610Z,100206.34
2019-03-30T15:10:16.662Z,100206.34
2019-03-30T15:12:49.897Z,100204.66
2019-03-30T15:15:23.948Z,100213.14
2019-03-30T15:18:00.278Z,100214.55
2019-03-30T15:20:35.970Z,100205.65
2019-03-30T15:23:10.362Z,100214.05
2019-03-30T15:25:45.237Z,100214.38
2019-03-30T15:28:19.602Z,100206.31
2019-03-30T15:30:55.417Z,100209.66
2019-03-30T15:33:29.963Z,100207.78
2019-03-30T15:36:05.264Z,100207.13
2019-03-30T15:38:38.876Z,100204.19
2019-03-30T15:41:16.629Z,100200.77
2019-03-30T15:43:52.633Z,100188.34
2019-03-30T15:46:26.900Z,100191.86
2019-03-30T15:49:03.777Z,100190.28
2019-03-30T15:51:37.735Z,100197.72
2019-03-30T15:54:13.475Z,100200.53
2019-03-30T15:56:48.878Z,100192.84
2019-03-30T15:59:23.877Z,100193.36
2019-03-30T16:01:57.881Z,100199.99
2019-03-30T16:04:32.634Z,100195.48
2019-03-30T16:07:08.679Z,100198.21
2019-03-30T16:09:42.667Z,100191.74
2019-03-30T16:12:17.263Z,100200.86
2019-03-30T16:14:52.033Z,100199.27
2019-03-30T16:17:25.867Z,100201.66
2019-03-30T16:20:00.182Z,100192.05
2019-03-30T16:22:34.442Z,100199.68
2019-03-30T16:25:08.663Z,100202.02
2019-03-30T16:27:42.107Z,100203.47
2019-03-30T16:30:17.506Z,100197.45
2019-03-30T16:32:51.636Z,100198.73
2019-03-30T16:35:25.127Z,100200.69
2019-03-30T16:38:00.288Z,100194.34
2019-03-30T16:40:33.803Z,100194.81
2019-03-30T16:43:08.557Z,100197.27
2019-03-30T16:45:42.694Z,100191.77
2019-03-30T16:48:16.520Z,100195.77
2019-03-30T16:50:50.191Z,100192.66
2019-03-30T16:53:23.801Z,100193.50
2019-03-30T16:55:57.276Z,100194.97
2019-03-30T16:58:31.421Z,100191.20
2019-03-30T17:01:05.442Z,100189.35
2019-03-30T17:03:38.683Z,100185.08
2019-03-30T17:06:12.725Z,100184.48
2019-03-30T17:08:46.776Z,100181.61
2019-03-30T17:11:20.661Z,100185.16
2019-03-30T17:13:54.101Z,100182.25
2019-03-30T17:16:28.709Z,100176.20
2019-03-30T17:19:02.606Z,100182.30
2019-03-30T17:21:35.868Z,100182.09
2019-03-30T17:24:09.437Z,100184.08
2019-03-30T17:26:43.030Z,100185.64
2019-03-30T17:29:16.834Z,100185.62
2019-03-30T17:31:50.753Z,100179.95
2019-03-30T17:34:24.513Z,100182.48
2019-03-30T17:36:58.381Z,100183.05
2019-03-30T17:39:31.744Z,100192.64
2019-03-30T17:42:05.460Z,100184.97
2019-03-30T17:44:40.514Z,100184.73
2019-03-30T17:47:13.771Z,100185.30
2019-03-30T17:49:48.454Z,100184.51
2019-03-30T17:52:22.030Z,100189.33
2019-03-30T17:54:56.363Z,100194.34
2019-03-30T17:57:29.960Z,100191.02
2019-03-30T18:00:03.746Z,100191.78
2019-03-30T18:02:38.024Z,100196.22
2019-03-30T18:05:12.134Z,100213.82
2019-03-30T18:07:46.636Z,100207.95
2019-03-30T18:10:21.174Z,100209.98
2019-03-30T18:12:55.976Z,100212.12
2019-03-30T18:15:29.681Z,100211.72
2019-03-30T18:18:04.207Z,100209.25
2019-03-30T18:20:37.578Z,100216.29
2019-03-30T18:23:11.331Z,100223.45
2019-03-30T18:25:44.697Z,100230.52
2019-03-30T18:28:27.107Z,100226.36
2019-03-30T18:30:54.726Z,100224.50
2019-03-30T18:33:29.201Z,100226.53
2019-03-30T18:36:03.506Z,100229.09
2019-03-30T18:38:39.589Z,100231.83
2019-03-30T18:41:13.513Z,100231.42
2019-03-30T18:43:47.477Z,100240.30
2019-03-30T18:46:20.373Z,100239.28
2019-03-30T18:48:54.580Z,100240.36
2019-03-30T18:51:29.098Z,100247.95
2019-03-30T18:54:04.090Z,100249.89
2019-03-30T18:56:38.525Z,100249.34
2019-03-30T18:59:12.423Z,100256.86
2019-03-30T19:01:46.145Z,100256.98
2019-03-30T19:04:20.676Z,100255.58
2019-03-30T19:06:54.855Z,100256.06
2019-03-30T19:09:28.911Z,100263.04
2019-03-30T19:12:03.684Z,100258.72
2019-03-30T19:14:37.365Z,100264.18
2019-03-30T19:17:11.460Z,100261.03
2019-03-30T19:19:45.556Z,100258.11
2019-03-30T19:22:19.794Z,100259.39
2019-03-30T19:24:53.885Z,100256.12
2019-03-30T19:27:27.681Z,100254.90
2019-03-30T19:30:01.753Z,100251.58
2019-03-30T19:32:36.347Z,100253.98
2019-03-30T19:35:10.414Z,100249.89
2019-03-30T19:37:44.498Z,100253.45
2019-03-30T19:40:18.550Z,100254.07
2019-03-30T19:42:52.280Z,100252.28
2019-03-30T19:45:26.119Z,100259.02
2019-03-30T19:48:00.167Z,100257.66
2019-03-30T19:50:34.540Z,100254.83
2019-03-30T19:53:08.952Z,100255.91
2019-03-30T19:55:43.508Z,100268.23
2019-03-30T19:58:17.220Z,100273.17
2019-03-30T20:00:51.514Z,100270.77
2019-03-30T20:03:25.903Z,100277.03
2019-03-30T20:05:59.942Z,100274.58
2019-03-30T20:08:33.742Z,100274.17
2019-03-30T20:11:08.286Z,100277.45
2019-03-30T20:13:42.344Z,100277.55
2019-03-30T20:16:16.378Z,100279.92
2019-03-30T20:18:50.193Z,100286.28
2019-03-30T20:21:23.044Z,100284.84
2019-03-30T20:23:56.240Z,100290.21
2019-03-30T20:26:29.820Z,100287.14
2019-03-30T20:29:03.675Z,100283.77
2019-03-30T20:31:37.781Z,100290.34
2019-03-30T20:34:12.799Z,100287.93
2019-03-30T20:36:46.736Z,100289.24
2019-03-30T20:39:20.082Z,100289.33
2019-03-30T20:41:53.880Z,100288.94
2019-03-30T20:44:27.596Z,100291.56
2019-03-30T20:47:01.041Z,100290.39
2019-03-30T20:49:34.797Z,100295.06
2019-03-30T20:52:08.848Z,100289.20
2019-03-30T20:54:42.922Z,100288.55
2019-03-30T20:57:17.443Z,100296.59
2019-03-30T20:59:50.992Z,100293.98
2019-03-30T21:02:24.946Z,100294.43
2019-03-30T21:04:58.657Z,100295.63
2019-03-30T21:07:32.019Z,100292.31
2019-03-30T21:10:07.194Z,100302.09
2019-03-30T21:12:41.712Z,100300.05
2019-03-30T21:15:15.462Z,100301.80
2019-03-30T21:17:49.145Z,100303.73
2019-03-30T21:20:23.574Z,100304.73
2019-03-30T21:22:57.595Z,100294.81
2019-03-30T21:25:31.945Z,100298.88
2019-03-30T21:28:06.001Z,100293.11
2019-03-30T21:30:40.005Z,100288.30
2019-03-30T21:33:14.032Z,100286.82
2019-03-30T21:35:48.238Z,100296.41
2019-03-30T21:38:23.126Z,100291.89
2019-03-30T21:40:57.036Z,100294.77
2019-03-30T21:43:31.154Z,100297.30
2019-03-30T21:46:05.704Z,100300.61
2019-03-30T21:48:40.160Z,100297.09
2019-03-30T21:51:14.293Z,100288.49
2019-03-30T21:53:48.494Z,100290.36
2019-03-30T21:56:22.193Z,100293.73
2019-03-30T21:58:56.365Z,100290.91
2019-03-30T22:01:30.463Z,100296.36
2019-03-30T22:04:04.733Z,100299.32
2019-03-30T22:06:38.189Z,100303.05
2019-03-30T22:09:12.501Z,100303.47
2019-03-30T22:11:46.055Z,100314.42
2019-03-30T22:14:20.410Z,100305.75
2019-03-30T22:16:54.877Z,100308.69
2019-03-30T22:19:28.270Z,100305.16
2019-03-30T22:22:02.699Z,100309.92
2019-03-30T22:24:36.314Z,100307.27
2019-03-30T22:27:10.059Z,100308.97
2019-03-30T22:29:43.190Z,100311.38
2019-03-30T22:32:17.097Z,100308.69
2019-03-30T22:34:50.632Z,100310.50
2019-03-30T22:37:24.248Z,100312.91
2019-03-30T22:39:57.760Z,100314.34
2019-03-30T22:42:31.955Z,100315.52
2019-03-30T22:45:07.253Z,100320.42
2019-03-30T22:47:41.775Z,100317.59
2019-03-30T22:50:16.442Z,100314.17
2019-03-30T22:52:50.328Z,100313.97
2019-03-30T22:55:24.376Z,100317.33
2019-03-30T22:57:58.963Z,100320.87
2019-03-30T23:00:50.556Z,100319.33
2019-03-30T23:03:25.197Z,100318.39
2019-03-30T23:05:59.530Z,100324.17
2019-03-30T23:08:33.460Z,100315.67
2019-03-30T23:11:07.355Z,100312.67
2019-03-30T23:13:41.395Z,100314.23
2019-03-30T23:16:14.873Z,100314.14
2019-03-30T23:18:48.388Z,100318.84
2019-03-30T23:21:21.646Z,100320.34
2019-03-30T23:23:55.212Z,100315.47
2019-03-30T23:26:28.596Z,100317.28
2019-03-30T23:29:03.584Z,100312.31
2019-03-30T23:31:38.263Z,100315.47
2019-03-30T23:34:11.957Z,100310.63
2019-03-30T23:36:45.939Z,100315.33
2019-03-30T23:39:19.208Z,100314.03
2019-03-30T23:41:52.889Z,100309.70
2019-03-30T23:44:26.749Z,100305.66
2019-03-30T23:47:00.863Z,100307.41
2019-03-30T23:49:34.799Z,100307.31
2019-03-30T23:52:08.385Z,100313.02
2019-03-30T23:54:42.184Z,100315.88
2019-03-30T23:57:16.090Z,100314.17
2019-03-30T23:59:50.147Z,100313.52
